sensor_id;sensor_type;location;lat;lon;timestamp;pressure;altitude;pressure_sealevel;temperature;humidity
46129;BME280;31860;45.186;5.790;2023-01-26T00:00:53;99658.22;;;6.84;77.39
46129;BME280;31860;45.186;5.790;2023-01-26T00:03:19;99652.16;;;6.85;76.67
46129;BME280;31860;45.186;5.790;2023-01-26T00:05:45;99651.31;;;6.86;75.92
46129;BME280;31860;45.186;5.790;2023-01-26T00:08:10;99646.16;;;6.88;76.64
46129;BME280;31860;45.186;5.790;2023-01-26T00:10:37;99647.06;;;6.90;76.80
46129;BME280;31860;45.186;5.790;2023-01-26T00:13:04;99650.47;;;6.87;77.34
46129;BME280;31860;45.186;5.790;2023-01-26T00:15:34;99638.28;;;6.85;78.42
46129;BME280;31860;45.186;5.790;2023-01-26T00:18:01;99638.25;;;6.83;79.05
46129;BME280;31860;45.186;5.790;2023-01-26T00:20:28;99630.50;;;6.85;79.40
46129;BME280;31860;45.186;5.790;2023-01-26T00:22:54;99619.22;;;6.83;79.72
46129;BME280;31860;45.186;5.790;2023-01-26T00:25:19;99620.06;;;6.82;79.84
46129;BME280;31860;45.186;5.790;2023-01-26T00:27:45;99615.75;;;6.82;79.59
46129;BME280;31860;45.186;5.790;2023-01-26T00:30:10;99603.59;;;6.81;79.39
46129;BME280;31860;45.186;5.790;2023-01-26T00:32:36;99606.19;;;6.81;79.07
46129;BME280;31860;45.186;5.790;2023-01-26T00:35:03;99595.84;;;6.83;78.95
46129;BME280;31860;45.186;5.790;2023-01-26T00:37:29;99605.38;;;6.82;78.64
46129;BME280;31860;45.186;5.790;2023-01-26T00:39:54;99598.41;;;6.81;78.45
46129;BME280;31860;45.186;5.790;2023-01-26T00:42:20;99601.88;;;6.80;78.69
46129;BME280;31860;45.186;5.790;2023-01-26T00:44:48;99590.59;;;6.80;79.15
46129;BME280;31860;45.186;5.790;2023-01-26T00:47:14;99598.38;;;6.78;79.87
46129;BME280;31860;45.186;5.790;2023-01-26T00:49:39;99592.28;;;6.78;80.17
46129;BME280;31860;45.186;5.790;2023-01-26T00:52:05;99593.16;;;6.77;80.38
46129;BME280;31860;45.186;5.790;2023-01-26T00:54:31;99586.22;;;6.77;80.06
46129;BME280;31860;45.186;5.790;2023-01-26T00:56:56;99585.28;;;6.75;80.29
46129;BME280;31860;45.186;5.790;2023-01-26T00:59:22;99584.44;;;6.75;80.41
46129;BME280;31860;45.186;5.790;2023-01-26T01:01:48;99579.22;;;6.73;80.35
46129;BME280;31860;45.186;5.790;2023-01-26T01:04:14;99579.25;;;6.75;80.09
46129;BME280;31860;45.186;5.790;2023-01-26T01:06:40;99575.78;;;6.74;79.79
46129;BME280;31860;45.186;5.790;2023-01-26T01:09:06;99581.00;;;6.76;78.64
46129;BME280;31860;45.186;5.790;2023-01-26T01:11:32;99568.88;;;6.75;78.32
46129;BME280;31860;45.186;5.790;2023-01-26T01:13:57;99572.38;;;6.77;77.69
46129;BME280;31860;45.186;5.790;2023-01-26T01:16:23;99569.81;;;6.78;77.21
46129;BME280;31860;45.186;5.790;2023-01-26T01:18:52;99564.63;;;6.78;77.01
46129;BME280;31860;45.186;5.790;2023-01-26T01:21:18;99560.31;;;6.79;77.25
46129;BME280;31860;45.186;5.790;2023-01-26T01:23:44;99556.06;;;6.82;77.06
46129;BME280;31860;45.186;5.790;2023-01-26T01:26:09;99550.00;;;6.83;77.33
46129;BME280;31860;45.186;5.790;2023-01-26T01:28:36;99550.88;;;6.84;78.22
46129;BME280;31860;45.186;5.790;2023-01-26T01:31:05;99549.19;;;6.84;79.66
46129;BME280;31860;45.186;5.790;2023-01-26T01:33:31;99539.63;;;6.83;80.08
46129;BME280;31860;45.186;5.790;2023-01-26T01:35:57;99546.53;;;6.83;81.40
46129;BME280;31860;45.186;5.790;2023-01-26T01:38:23;99533.50;;;6.80;82.52
46129;BME280;31860;45.186;5.790;2023-01-26T01:40:49;99540.41;;;6.79;83.02
46129;BME280;31860;45.186;5.790;2023-01-26T01:43:14;99537.81;;;6.79;80.77
46129;BME280;31860;45.186;5.790;2023-01-26T01:45:42;99536.13;;;6.81;81.02
46129;BME280;31860;45.186;5.790;2023-01-26T01:48:22;99538.72;;;6.83;81.98
46129;BME280;31860;45.186;5.790;2023-01-26T01:50:52;99530.94;;;6.83;82.45
46129;BME280;31860;45.186;5.790;2023-01-26T01:53:23;99537.00;;;6.82;82.87
46129;BME280;31860;45.186;5.790;2023-01-26T01:55:55;99540.47;;;6.81;83.20
46129;BME280;31860;45.186;5.790;2023-01-26T01:58:22;99533.47;;;6.78;83.64
46129;BME280;31860;45.186;5.790;2023-01-26T02:00:47;99528.28;;;6.78;83.74
46129;BME280;31860;45.186;5.790;2023-01-26T02:03:13;99516.09;;;6.76;84.09
46129;BME280;31860;45.186;5.790;2023-01-26T02:08:50;99505.75;;;6.77;83.32
46129;BME280;31860;45.186;5.790;2023-01-26T02:11:19;99514.44;;;6.79;82.20
46129;BME280;31860;45.186;5.790;2023-01-26T02:13:47;99509.19;;;6.76;82.24
46129;BME280;31860;45.186;5.790;2023-01-26T02:16:13;99501.38;;;6.73;82.86
46129;BME280;31860;45.186;5.790;2023-01-26T02:18:39;99499.63;;;6.73;83.89
46129;BME280;31860;45.186;5.790;2023-01-26T02:21:06;99488.34;;;6.71;84.28
46129;BME280;31860;45.186;5.790;2023-01-26T02:26:26;99493.47;;;6.68;84.23
46129;BME280;31860;45.186;5.790;2023-01-26T02:28:52;99489.19;;;6.70;83.34
46129;BME280;31860;45.186;5.790;2023-01-26T02:31:18;99488.31;;;6.70;82.97
46129;BME280;31860;45.186;5.790;2023-01-26T02:33:44;99485.72;;;6.70;82.63
46129;BME280;31860;45.186;5.790;2023-01-26T02:36:17;99492.63;;;6.69;82.55
46129;BME280;31860;45.186;5.790;2023-01-26T02:38:48;99482.25;;;6.69;83.08
46129;BME280;31860;45.186;5.790;2023-01-26T02:41:15;99489.19;;;6.70;83.48
46129;BME280;31860;45.186;5.790;2023-01-26T02:44:03;99481.41;;;6.70;83.55
46129;BME280;31860;45.186;5.790;2023-01-26T02:46:29;99483.16;;;6.71;83.73
46129;BME280;31860;45.186;5.790;2023-01-26T02:48:54;99488.34;;;6.71;82.55
46129;BME280;31860;45.186;5.790;2023-01-26T02:51:39;99483.19;;;6.73;83.21
46129;BME280;31860;45.186;5.790;2023-01-26T02:54:04;99478.81;;;6.70;83.64
46129;BME280;31860;45.186;5.790;2023-01-26T02:56:30;99478.81;;;6.70;83.78
46129;BME280;31860;45.186;5.790;2023-01-26T02:58:55;99476.19;;;6.69;83.80
46129;BME280;31860;45.186;5.790;2023-01-26T03:01:21;99474.50;;;6.71;83.60
46129;BME280;31860;45.186;5.790;2023-01-26T03:03:46;99471.91;;;6.71;84.26
46129;BME280;31860;45.186;5.790;2023-01-26T03:06:12;99467.56;;;6.70;84.58
46129;BME280;31860;45.186;5.790;2023-01-26T03:08:38;99474.44;;;6.68;84.56
46129;BME280;31860;45.186;5.790;2023-01-26T03:11:05;99475.34;;;6.70;84.26
46129;BME280;31860;45.186;5.790;2023-01-26T03:13:31;99470.13;;;6.68;83.97
46129;BME280;31860;45.186;5.790;2023-01-26T03:15:56;99465.75;;;6.67;83.06
46129;BME280;31860;45.186;5.790;2023-01-26T03:18:27;99458.84;;;6.66;82.64
46129;BME280;31860;45.186;5.790;2023-01-26T03:21:13;99467.50;;;6.67;82.75
46129;BME280;31860;45.186;5.790;2023-01-26T03:23:58;99473.59;;;6.69;81.79
46129;BME280;31860;45.186;5.790;2023-01-26T03:26:42;99465.75;;;6.67;81.96
46129;BME280;31860;45.186;5.790;2023-01-26T03:29:26;99463.16;;;6.67;82.28
46129;BME280;31860;45.186;5.790;2023-01-26T03:31:52;99463.22;;;6.69;81.81
46129;BME280;31860;45.186;5.790;2023-01-26T03:34:18;99460.63;;;6.69;81.70
46129;BME280;31860;45.186;5.790;2023-01-26T03:36:45;99460.66;;;6.70;81.33
46129;BME280;31860;45.186;5.790;2023-01-26T03:39:10;99461.53;;;6.71;80.74
46129;BME280;31860;45.186;5.790;2023-01-26T03:41:56;99458.88;;;6.69;82.23
46129;BME280;31860;45.186;5.790;2023-01-26T03:44:40;99452.84;;;6.69;83.70
46129;BME280;31860;45.186;5.790;2023-01-26T03:47:24;99448.44;;;6.66;84.51
46129;BME280;31860;45.186;5.790;2023-01-26T03:50:08;99448.44;;;6.65;85.35
46129;BME280;31860;45.186;5.790;2023-01-26T03:52:52;99444.06;;;6.64;85.58
46129;BME280;31860;45.186;5.790;2023-01-26T03:55:36;99439.75;;;6.64;85.57
46129;BME280;31860;45.186;5.790;2023-01-26T03:58:20;99444.06;;;6.64;85.38
46129;BME280;31860;45.186;5.790;2023-01-26T04:00:48;99438.03;;;6.63;85.33
46129;BME280;31860;45.186;5.790;2023-01-26T04:03:13;99442.34;;;6.64;84.90
46129;BME280;31860;45.186;5.790;2023-01-26T04:05:58;99441.53;;;6.65;84.29
46129;BME280;31860;45.186;5.790;2023-01-26T04:08:42;99435.47;;;6.65;83.23
46129;BME280;31860;45.186;5.790;2023-01-26T04:11:08;99431.09;;;6.64;82.46
46129;BME280;31860;45.186;5.790;2023-01-26T04:13:34;99433.69;;;6.64;82.57
46129;BME280;31860;45.186;5.790;2023-01-26T04:16:18;99431.06;;;6.62;82.82
46129;BME280;31860;45.186;5.790;2023-01-26T04:19:02;99428.44;;;6.61;83.49
46129;BME280;31860;45.186;5.790;2023-01-26T04:21:46;99428.44;;;6.61;83.54
46129;BME280;31860;45.186;5.790;2023-01-26T04:24:12;99422.38;;;6.60;83.71
46129;BME280;31860;45.186;5.790;2023-01-26T04:26:41;99426.69;;;6.60;83.94
46129;BME280;31860;45.186;5.790;2023-01-26T04:29:10;99429.25;;;6.58;83.83
46129;BME280;31860;45.186;5.790;2023-01-26T04:31:37;99424.94;;;6.59;83.88
46129;BME280;31860;45.186;5.790;2023-01-26T04:34:04;99423.25;;;6.59;84.54
46129;BME280;31860;45.186;5.790;2023-01-26T04:36:30;99414.56;;;6.59;84.48
46129;BME280;31860;45.186;5.790;2023-01-26T04:38:56;99407.66;;;6.58;84.40
46129;BME280;31860;45.186;5.790;2023-01-26T04:41:22;99408.50;;;6.58;84.75
46129;BME280;31860;45.186;5.790;2023-01-26T04:43:47;99401.56;;;6.57;84.56
46129;BME280;31860;45.186;5.790;2023-01-26T04:46:14;99407.59;;;6.56;84.46
46129;BME280;31860;45.186;5.790;2023-01-26T04:48:40;99402.41;;;6.56;84.06
46129;BME280;31860;45.186;5.790;2023-01-26T04:51:09;99401.56;;;6.56;84.46
46129;BME280;31860;45.186;5.790;2023-01-26T04:53:35;99398.09;;;6.57;84.56
46129;BME280;31860;45.186;5.790;2023-01-26T04:56:01;99396.38;;;6.57;84.41
46129;BME280;31860;45.186;5.790;2023-01-26T04:58:26;99398.97;;;6.57;84.69
46129;BME280;31860;45.186;5.790;2023-01-26T05:00:53;99389.44;;;6.56;84.11
46129;BME280;31860;45.186;5.790;2023-01-26T05:03:20;99394.63;;;6.56;83.86
46129;BME280;31860;45.186;5.790;2023-01-26T05:05:49;99392.88;;;6.54;84.02
46129;BME280;31860;45.186;5.790;2023-01-26T05:08:17;99394.56;;;6.53;83.86
46129;BME280;31860;45.186;5.790;2023-01-26T05:10:43;99396.38;;;6.56;83.98
46129;BME280;31860;45.186;5.790;2023-01-26T05:13:08;99388.59;;;6.56;84.43
46129;BME280;31860;45.186;5.790;2023-01-26T05:15:34;99387.72;;;6.57;85.12
46129;BME280;31860;45.186;5.790;2023-01-26T05:18:00;99382.53;;;6.57;84.21
46129;BME280;31860;45.186;5.790;2023-01-26T05:20:26;99380.81;;;6.56;83.74
46129;BME280;31860;45.186;5.790;2023-01-26T05:22:51;99380.81;;;6.57;83.44
46129;BME280;31860;45.186;5.790;2023-01-26T05:25:17;99374.75;;;6.57;81.82
46129;BME280;31860;45.186;5.790;2023-01-26T05:27:43;99379.09;;;6.58;81.06
46129;BME280;31860;45.186;5.790;2023-01-26T05:30:09;99379.94;;;6.57;80.83
46129;BME280;31860;45.186;5.790;2023-01-26T05:32:35;99379.06;;;6.56;80.76
46129;BME280;31860;45.186;5.790;2023-01-26T05:35:02;99378.22;;;6.57;80.44
46129;BME280;31860;45.186;5.790;2023-01-26T05:37:27;99384.34;;;6.61;80.46
46129;BME280;31860;45.186;5.790;2023-01-26T05:39:53;99376.53;;;6.59;80.53
46129;BME280;31860;45.186;5.790;2023-01-26T05:42:19;99370.47;;;6.60;81.80
46129;BME280;31860;45.186;5.790;2023-01-26T05:44:45;99367.88;;;6.60;81.10
46129;BME280;31860;45.186;5.790;2023-01-26T05:47:10;99368.78;;;6.62;80.26
46129;BME280;31860;45.186;5.790;2023-01-26T05:49:36;99373.09;;;6.62;78.82
46129;BME280;31860;45.186;5.790;2023-01-26T05:52:09;99361.91;;;6.63;78.51
46129;BME280;31860;45.186;5.790;2023-01-26T05:54:35;99369.69;;;6.63;78.01
46129;BME280;31860;45.186;5.790;2023-01-26T05:57:01;99366.22;;;6.64;77.36
46129;BME280;31860;45.186;5.790;2023-01-26T05:59:27;99358.44;;;6.64;78.09
46129;BME280;31860;45.186;5.790;2023-01-26T06:01:54;99363.63;;;6.64;78.46
46129;BME280;31860;45.186;5.790;2023-01-26T06:04:19;99368.78;;;6.62;78.53
46129;BME280;31860;45.186;5.790;2023-01-26T06:06:45;99367.91;;;6.62;78.28
46129;BME280;31860;45.186;5.790;2023-01-26T06:09:10;99369.69;;;6.64;77.43
46129;BME280;31860;45.186;5.790;2023-01-26T06:11:35;99364.50;;;6.63;76.07
46129;BME280;31860;45.186;5.790;2023-01-26T06:14:01;99357.53;;;6.62;75.69
46129;BME280;31860;45.186;5.790;2023-01-26T06:16:26;99359.28;;;6.61;75.04
46129;BME280;31860;45.186;5.790;2023-01-26T06:18:52;99361.88;;;6.61;75.01
46129;BME280;31860;45.186;5.790;2023-01-26T06:21:17;99360.97;;;6.59;74.74
46129;BME280;31860;45.186;5.790;2023-01-26T06:23:43;99354.94;;;6.62;74.81
46129;BME280;31860;45.186;5.790;2023-01-26T06:26:08;99356.69;;;6.61;75.18
46129;BME280;31860;45.186;5.790;2023-01-26T06:28:34;99357.53;;;6.62;75.49
46129;BME280;31860;45.186;5.790;2023-01-26T06:31:05;99354.03;;;6.60;76.69
46129;BME280;31860;45.186;5.790;2023-01-26T06:33:32;99348.00;;;6.59;77.35
46129;BME280;31860;45.186;5.790;2023-01-26T06:36:07;99347.13;;;6.59;78.31
46129;BME280;31860;45.186;5.790;2023-01-26T06:38:34;99351.41;;;6.58;78.83
46129;BME280;31860;45.186;5.790;2023-01-26T06:41:04;99348.00;;;6.59;79.07
46129;BME280;31860;45.186;5.790;2023-01-26T06:43:31;99343.63;;;6.58;78.48
46129;BME280;31860;45.186;5.790;2023-01-26T06:45:58;99351.41;;;6.58;78.40
46129;BME280;31860;45.186;5.790;2023-01-26T06:48:24;99351.41;;;6.58;77.81
46129;BME280;31860;45.186;5.790;2023-01-26T06:50:50;99346.22;;;6.57;78.16
46129;BME280;31860;45.186;5.790;2023-01-26T06:53:32;99347.06;;;6.56;78.46
46129;BME280;31860;45.186;5.790;2023-01-26T06:55:58;99346.19;;;6.55;78.49
46129;BME280;31860;45.186;5.790;2023-01-26T06:58:24;99345.31;;;6.56;78.84
46129;BME280;31860;45.186;5.790;2023-01-26T07:00:50;99343.63;;;6.57;78.83
46129;BME280;31860;45.186;5.790;2023-01-26T07:03:15;99347.97;;;6.58;78.59
46129;BME280;31860;45.186;5.790;2023-01-26T07:05:41;99341.03;;;6.57;78.66
46129;BME280;31860;45.186;5.790;2023-01-26T07:08:06;99341.88;;;6.56;78.93
46129;BME280;31860;45.186;5.790;2023-01-26T07:10:34;99341.03;;;6.58;78.94
46129;BME280;31860;45.186;5.790;2023-01-26T07:12:59;99340.13;;;6.56;79.43
46129;BME280;31860;45.186;5.790;2023-01-26T07:15:24;99336.72;;;6.57;79.41
46129;BME280;31860;45.186;5.790;2023-01-26T07:17:50;99333.22;;;6.57;79.84
46129;BME280;31860;45.186;5.790;2023-01-26T07:20:15;99333.22;;;6.55;80.41
46129;BME280;31860;45.186;5.790;2023-01-26T07:22:41;99335.81;;;6.57;80.45
46129;BME280;31860;45.186;5.790;2023-01-26T07:25:06;99337.53;;;6.56;80.82
46129;BME280;31860;45.186;5.790;2023-01-26T07:27:32;99337.53;;;6.55;81.07
46129;BME280;31860;45.186;5.790;2023-01-26T07:29:57;99332.31;;;6.53;81.46
46129;BME280;31860;45.186;5.790;2023-01-26T07:32:23;99334.03;;;6.53;81.60
46129;BME280;31860;45.186;5.790;2023-01-26T07:34:48;99339.22;;;6.53;81.33
46129;BME280;31860;45.186;5.790;2023-01-26T07:37:14;99338.31;;;6.51;81.02
46129;BME280;31860;45.186;5.790;2023-01-26T07:39:39;99327.09;;;6.52;81.11
46129;BME280;31860;45.186;5.790;2023-01-26T07:42:05;99329.69;;;6.52;81.33
46129;BME280;31860;45.186;5.790;2023-01-26T07:44:30;99332.31;;;6.53;80.36
46129;BME280;31860;45.186;5.790;2023-01-26T07:46:56;99322.81;;;6.54;80.37
46129;BME280;31860;45.186;5.790;2023-01-26T07:49:22;99329.75;;;6.55;80.53
46129;BME280;31860;45.186;5.790;2023-01-26T07:51:47;99331.44;;;6.54;80.81
46129;BME280;31860;45.186;5.790;2023-01-26T07:54:12;99318.53;;;6.56;80.25
46129;BME280;31860;45.186;5.790;2023-01-26T07:56:38;99325.44;;;6.57;80.29
46129;BME280;31860;45.186;5.790;2023-01-26T07:59:03;99317.66;;;6.57;79.62
46129;BME280;31860;45.186;5.790;2023-01-26T08:01:29;99318.59;;;6.60;78.90
46129;BME280;31860;45.186;5.790;2023-01-26T08:03:54;99315.97;;;6.59;78.39
46129;BME280;31860;45.186;5.790;2023-01-26T08:06:20;99317.75;;;6.61;78.19
46129;BME280;31860;45.186;5.790;2023-01-26T08:08:47;99318.63;;;6.62;77.05
46129;BME280;31860;45.186;5.790;2023-01-26T08:11:17;99321.22;;;6.62;76.09
46129;BME280;31860;45.186;5.790;2023-01-26T08:13:43;99321.22;;;6.62;76.02
46129;BME280;31860;45.186;5.790;2023-01-26T08:16:10;99325.53;;;6.61;76.49
46129;BME280;31860;45.186;5.790;2023-01-26T08:18:41;99322.09;;;6.62;76.18
46129;BME280;31860;45.186;5.790;2023-01-26T08:21:08;99320.34;;;6.61;76.82
46129;BME280;31860;45.186;5.790;2023-01-26T08:23:33;99317.75;;;6.61;77.10
46129;BME280;31860;45.186;5.790;2023-01-26T08:26:03;99317.78;;;6.63;76.73
46129;BME280;31860;45.186;5.790;2023-01-26T08:28:29;99316.91;;;6.62;76.55
46129;BME280;31860;45.186;5.790;2023-01-26T08:30:55;99315.19;;;6.63;76.98
46129;BME280;31860;45.186;5.790;2023-01-26T08:33:22;99308.31;;;6.65;76.40
46129;BME280;31860;45.186;5.790;2023-01-26T08:35:47;99316.09;;;6.66;76.03
46129;BME280;31860;45.186;5.790;2023-01-26T08:38:13;99314.38;;;6.65;75.64
46129;BME280;31860;45.186;5.790;2023-01-26T08:40:38;99319.56;;;6.65;75.58
46129;BME280;31860;45.186;5.790;2023-01-26T08:43:04;99318.69;;;6.65;75.46
46129;BME280;31860;45.186;5.790;2023-01-26T08:45:30;99314.38;;;6.65;75.20
46129;BME280;31860;45.186;5.790;2023-01-26T08:47:56;99318.69;;;6.66;75.84
46129;BME280;31860;45.186;5.790;2023-01-26T08:50:23;99309.19;;;6.65;75.98
46129;BME280;31860;45.186;5.790;2023-01-26T08:52:48;99312.66;;;6.67;75.77
46129;BME280;31860;45.186;5.790;2023-01-26T08:55:13;99321.31;;;6.68;75.36
46129;BME280;31860;45.186;5.790;2023-01-26T08:57:39;99314.41;;;6.68;74.52
46129;BME280;31860;45.186;5.790;2023-01-26T09:00:06;99316.13;;;6.68;74.10
46129;BME280;31860;45.186;5.790;2023-01-26T09:02:32;99316.16;;;6.69;73.79
46129;BME280;31860;45.186;5.790;2023-01-26T09:04:57;99312.72;;;6.69;73.89
46129;BME280;31860;45.186;5.790;2023-01-26T09:07:23;99310.97;;;6.69;74.03
46129;BME280;31860;45.186;5.790;2023-01-26T09:09:48;99317.03;;;6.70;73.90
46129;BME280;31860;45.186;5.790;2023-01-26T09:12:14;99316.22;;;6.72;73.71
46129;BME280;31860;45.186;5.790;2023-01-26T09:14:39;99317.94;;;6.72;74.18
46129;BME280;31860;45.186;5.790;2023-01-26T09:17:06;99319.69;;;6.73;73.75
46129;BME280;31860;45.186;5.790;2023-01-26T09:19:31;99315.34;;;6.73;72.55
46129;BME280;31860;45.186;5.790;2023-01-26T09:21:57;99317.97;;;6.75;72.89
46129;BME280;31860;45.186;5.790;2023-01-26T09:24:22;99314.53;;;6.76;73.15
46129;BME280;31860;45.186;5.790;2023-01-26T09:26:48;99317.97;;;6.75;72.47
46129;BME280;31860;45.186;5.790;2023-01-26T09:29:14;99314.53;;;6.75;72.35
46129;BME280;31860;45.186;5.790;2023-01-26T09:31:40;99317.97;;;6.75;72.29
46129;BME280;31860;45.186;5.790;2023-01-26T09:34:06;99322.34;;;6.78;72.37
46129;BME280;31860;45.186;5.790;2023-01-26T09:36:31;99323.22;;;6.77;71.56
46129;BME280;31860;45.186;5.790;2023-01-26T09:38:58;99312.84;;;6.78;71.85
46129;BME280;31860;45.186;5.790;2023-01-26T09:44:08;99315.47;;;6.80;71.73
46129;BME280;31860;45.186;5.790;2023-01-26T09:47:06;99320.66;;;6.80;71.58
46129;BME280;31860;45.186;5.790;2023-01-26T09:50:00;99321.53;;;6.80;71.59
46129;BME280;31860;45.186;5.790;2023-01-26T09:52:36;99325.03;;;6.82;71.29
46129;BME280;31860;45.186;5.790;2023-01-26T09:55:07;99324.19;;;6.83;70.88
46129;BME280;31860;45.186;5.790;2023-01-26T09:57:58;99326.78;;;6.83;70.58
46129;BME280;31860;45.186;5.790;2023-01-26T10:07:58;99321.66;;;6.86;70.92
46129;BME280;31860;45.186;5.790;2023-01-26T10:10:31;99320.81;;;6.89;70.46
46129;BME280;31860;45.186;5.790;2023-01-26T10:12:59;99320.81;;;6.90;69.96
46129;BME280;31860;45.186;5.790;2023-01-26T10:15:35;99323.47;;;6.92;69.43
46129;BME280;31860;45.186;5.790;2023-01-26T10:18:07;99318.28;;;6.92;68.92
46129;BME280;31860;45.186;5.790;2023-01-26T10:20:50;99322.59;;;6.93;68.75
46129;BME280;31860;45.186;5.790;2023-01-26T10:25:50;99327.81;;;6.94;68.83
46129;BME280;31860;45.186;5.790;2023-01-26T10:28:18;99327.81;;;6.94;68.55
46129;BME280;31860;45.186;5.790;2023-01-26T10:30:46;99320.00;;;6.93;68.92
46129;BME280;31860;45.186;5.790;2023-01-26T10:35:41;99326.09;;;6.95;68.47
46129;BME280;31860;45.186;5.790;2023-01-26T10:38:46;99320.91;;;6.93;67.58
46129;BME280;31860;45.186;5.790;2023-01-26T10:43:51;99309.59;;;6.91;67.84
46129;BME280;31860;45.186;5.790;2023-01-26T10:46:39;99318.22;;;6.90;68.00
46129;BME280;31860;45.186;5.790;2023-01-26T10:51:36;99307.00;;;6.91;67.79
46129;BME280;31860;45.186;5.790;2023-01-26T10:56:51;99303.56;;;6.92;67.79
46129;BME280;31860;45.186;5.790;2023-01-26T10:59:24;99307.03;;;6.93;67.01
46129;BME280;31860;45.186;5.790;2023-01-26T11:02:01;99300.06;;;6.90;67.27
46129;BME280;31860;45.186;5.790;2023-01-26T11:04:28;99301.78;;;6.88;67.62
46129;BME280;31860;45.186;5.790;2023-01-26T11:06:54;99301.81;;;6.91;67.75
46129;BME280;31860;45.186;5.790;2023-01-26T11:09:27;99298.34;;;6.92;67.60
46129;BME280;31860;45.186;5.790;2023-01-26T11:11:59;99304.44;;;6.94;67.92
46129;BME280;31860;45.186;5.790;2023-01-26T11:14:26;99298.44;;;6.95;67.63
46129;BME280;31860;45.186;5.790;2023-01-26T11:17:20;99294.97;;;6.96;67.00
46129;BME280;31860;45.186;5.790;2023-01-26T11:20:04;99294.97;;;6.96;66.70
46129;BME280;31860;45.186;5.790;2023-01-26T11:25:26;99286.28;;;6.94;66.25
46129;BME280;31860;45.186;5.790;2023-01-26T11:33:19;99285.50;;;7.00;66.86
46129;BME280;31860;45.186;5.790;2023-01-26T11:35:54;99280.31;;;7.00;66.97
46129;BME280;31860;45.186;5.790;2023-01-26T11:43:56;99277.81;;;7.06;65.34
46129;BME280;31860;45.186;5.790;2023-01-26T11:57:50;99270.09;;;7.09;63.98
46129;BME280;31860;45.186;5.790;2023-01-26T12:00:22;99263.09;;;7.06;63.85
46129;BME280;31860;45.186;5.790;2023-01-26T12:03:00;99264.00;;;7.07;63.42
46129;BME280;31860;45.186;5.790;2023-01-26T12:05:43;99259.66;;;7.07;62.76
46129;BME280;31860;45.186;5.790;2023-01-26T12:08:24;99257.09;;;7.09;62.75
46129;BME280;31860;45.186;5.790;2023-01-26T12:13:59;99251.03;;;7.08;62.67
46129;BME280;31860;45.186;5.790;2023-01-26T12:16:49;99253.63;;;7.10;62.51
46129;BME280;31860;45.186;5.790;2023-01-26T12:19:31;99242.38;;;7.09;62.68
46129;BME280;31860;45.186;5.790;2023-01-26T12:22:19;99239.78;;;7.09;62.64
46129;BME280;31860;45.186;5.790;2023-01-26T12:24:51;99241.53;;;7.10;62.21
46129;BME280;31860;45.186;5.790;2023-01-26T12:27:32;99241.53;;;7.10;62.00
46129;BME280;31860;45.186;5.790;2023-01-26T12:32:47;99232.84;;;7.08;61.88
46129;BME280;31860;45.186;5.790;2023-01-26T12:35:13;99233.69;;;7.07;61.51
46129;BME280;31860;45.186;5.790;2023-01-26T12:37:56;99231.97;;;7.09;61.07
46129;BME280;31860;45.186;5.790;2023-01-26T12:40:35;99232.88;;;7.10;61.44
46129;BME280;31860;45.186;5.790;2023-01-26T12:46:04;99226.78;;;7.09;61.36
46129;BME280;31860;45.186;5.790;2023-01-26T12:51:11;99222.47;;;7.10;61.50
46129;BME280;31860;45.186;5.790;2023-01-26T12:53:59;99219.00;;;7.09;61.20
46129;BME280;31860;45.186;5.790;2023-01-26T12:56:48;99212.91;;;7.07;61.03
46129;BME280;31860;45.186;5.790;2023-01-26T12:59:19;99208.59;;;7.06;61.34
46129;BME280;31860;45.186;5.790;2023-01-26T13:01:45;99200.81;;;7.09;61.54
46129;BME280;31860;45.186;5.790;2023-01-26T13:04:13;99198.19;;;7.06;61.18
46129;BME280;31860;45.186;5.790;2023-01-26T13:06:40;99196.47;;;7.07;61.23
46129;BME280;31860;45.186;5.790;2023-01-26T13:09:24;99193.91;;;7.08;60.89
46129;BME280;31860;45.186;5.790;2023-01-26T13:11:55;99193.91;;;7.08;61.23
46129;BME280;31860;45.186;5.790;2023-01-26T13:14:26;99191.31;;;7.08;61.55
46129;BME280;31860;45.186;5.790;2023-01-26T13:16:53;99193.03;;;7.09;61.64
46129;BME280;31860;45.186;5.790;2023-01-26T13:19:35;99187.00;;;7.10;61.53
46129;BME280;31860;45.186;5.790;2023-01-26T13:24:45;99196.53;;;7.11;61.43
46129;BME280;31860;45.186;5.790;2023-01-26T13:27:55;99192.22;;;7.13;61.56
46129;BME280;31860;45.186;5.790;2023-01-26T13:32:51;99192.22;;;7.13;61.89
46129;BME280;31860;45.186;5.790;2023-01-26T13:35:22;99192.22;;;7.13;61.96
46129;BME280;31860;45.186;5.790;2023-01-26T13:40:30;99193.09;;;7.14;61.58
46129;BME280;31860;45.186;5.790;2023-01-26T13:43:07;99185.31;;;7.12;61.90
46129;BME280;31860;45.186;5.790;2023-01-26T13:45:56;99183.56;;;7.13;61.41
46129;BME280;31860;45.186;5.790;2023-01-26T13:51:08;99189.63;;;7.12;61.29
46129;BME280;31860;45.186;5.790;2023-01-26T13:53:38;99186.16;;;7.13;61.42
46129;BME280;31860;45.186;5.790;2023-01-26T13:56:26;99187.91;;;7.14;61.23
46129;BME280;31860;45.186;5.790;2023-01-26T13:58:53;99176.63;;;7.12;61.62
46129;BME280;31860;45.186;5.790;2023-01-26T14:01:26;99176.63;;;7.12;61.64
46129;BME280;31860;45.186;5.790;2023-01-26T14:04:22;99174.94;;;7.14;61.50
46129;BME280;31860;45.186;5.790;2023-01-26T14:06:58;99174.06;;;7.15;61.46
46129;BME280;31860;45.186;5.790;2023-01-26T14:09:27;99171.50;;;7.16;61.30
46129;BME280;31860;45.186;5.790;2023-01-26T14:11:57;99168.03;;;7.16;60.83
46129;BME280;31860;45.186;5.790;2023-01-26T14:14:26;99163.72;;;7.16;61.01
46129;BME280;31860;45.186;5.790;2023-01-26T14:16:53;99163.72;;;7.16;61.14
46129;BME280;31860;45.186;5.790;2023-01-26T14:19:21;99164.56;;;7.17;61.33
46129;BME280;31860;45.186;5.790;2023-01-26T14:21:55;99163.75;;;7.19;61.10
46129;BME280;31860;45.186;5.790;2023-01-26T14:24:38;99157.66;;;7.17;60.42
46129;BME280;31860;45.186;5.790;2023-01-26T14:27:14;99160.25;;;7.19;60.22
46129;BME280;31860;45.186;5.790;2023-01-26T14:29:44;99162.00;;;7.18;60.15
46129;BME280;31860;45.186;5.790;2023-01-26T14:32:14;99161.13;;;7.16;59.93
46129;BME280;31860;45.186;5.790;2023-01-26T14:34:54;99167.16;;;7.15;59.69
46129;BME280;31860;45.186;5.790;2023-01-26T14:37:23;99161.13;;;7.16;59.75
46129;BME280;31860;45.186;5.790;2023-01-26T14:40:08;99164.63;;;7.18;59.76